Flight Track Log - Related Links

Times and Time Zones

All times are in EDT time to prevent confusion due to time zone crossing. See the WIG7406 flight status page for this flight to view local times or setup timezone preferences in your user account.


Time Position Orientation Groundspeed Altitude Reporting Facility
EDT Latitude Longitude Course Direction KTS MPH feet Rate Location/Type
Fri 07:11:07 PM 44.7669 -68.7953 222° Southwest 115 132 2,700  Level Boston Center
Fri 07:12:09 PM 44.7500 -68.8308 236° Southwest 113 130 3,700 624 Climbing Boston Center
Fri 07:13:12 PM 44.7281 -68.8617 225° Southwest 110 127 4,000 144 Climbing Boston Center
Fri 07:14:14 PM 44.6981 -68.8914 215° Southwest 125 144 4,000  Level Boston Center
Fri 07:15:00 PM 44.6322 -69.0471 222° Southwest  Level FlightAware Approximate
Fri 07:15:14 PM 44.6717 -68.9281 225° Southwest 130 150 4,000  Level Boston Center
Fri 07:16:00 PM 44.6030 -69.0835 222° Southwest  Level FlightAware Approximate
Fri 07:16:15 PM 44.6461 -68.9622 224° Southwest 130 150 4,000  Level Boston Center
Fri 07:17:15 PM 44.6217 -68.9967 225° Southwest 129 148 4,000  Level Boston Center
Fri 07:18:19 PM 44.5958 -69.0331 225° Southwest 129 148 4,000  Level Boston Center
Fri 07:19:19 PM 44.5703 -69.0683 225° Southwest 129 148 4,000  Level Boston Center
Fri 07:20:20 PM 44.5450 -69.1031 224° Southwest 129 148 4,000  Level Boston Center
Fri 07:21:23 PM 44.5156 -69.1444 225° Southwest 129 148 4,000  Level Boston Center
Fri 07:22:24 PM 44.4906 -69.1789 225° Southwest 128 147 4,000 49 Level Boston Center
Fri 07:23:25 PM 44.4656 -69.2114 223° Southwest 127 146 4,100 49 Climbing Boston Center
Fri 07:24:26 PM 44.4414 -69.2458 226° Southwest 126 145 4,100  Level Boston Center
Fri 07:25:27 PM 44.4164 -69.2847 228° Southwest 127 146 4,100 -48 Level Boston Center
Fri 07:26:31 PM 44.3922 -69.3242 229° Southwest 129 148 4,000 -48 Descending Boston Center
Fri 07:27:31 PM 44.3703 -69.3631 232° Southwest 129 148 4,000  Level Boston Center
Fri 07:28:32 PM 44.3469 -69.4011 229° Southwest 129 148 4,000  Level Boston Center
Fri 07:29:32 PM 44.3244 -69.4414 232° Southwest 129 148 4,000  Level Boston Center
Fri 07:30:36 PM 44.2994 -69.4828 230° Southwest 129 148 4,000  Level Boston Center
Fri 07:31:36 PM 44.2761 -69.5194 228° Southwest 130 150 4,000  Level Boston Center
Fri 07:32:38 PM 44.2519 -69.5617 231° Southwest 132 152 4,000  Level Boston Center
Fri 07:33:38 PM 44.2272 -69.6036 231° Southwest 134 154 4,000  Level Boston Center
Fri 07:34:41 PM 44.1967 -69.6536 230° Southwest 138 159 4,000 48 Level Boston Center
Fri 07:35:42 PM 44.1708 -69.6958 230° Southwest 138 159 4,100 50 Climbing Boston Center
Fri 07:36:42 PM 44.1458 -69.7372 230° Southwest 139 160 4,100  Level Boston Center
Fri 07:37:43 PM 44.1194 -69.7822 231° Southwest 139 160 4,100  Level Boston Center
Fri 07:38:47 PM 44.0953 -69.8236 231° Southwest 139 160 4,100  Level Boston Center
Fri 07:39:48 PM 44.0703 -69.8639 229° Southwest 139 160 4,100  Level Boston Center
Fri 07:40:48 PM 44.0444 -69.9064 230° Southwest 137 158 4,100  Level Boston Center
Fri 07:41:49 PM 44.0200 -69.9472 230° Southwest 137 158 4,100  Level Boston Center
Fri 07:42:50 PM 43.9953 -69.9881 230° Southwest 137 158 4,100  Level Boston Center
Fri 07:43:53 PM 43.9706 -70.0292 230° Southwest 138 159 4,100  Level Boston Center
Fri 07:44:54 PM 43.9433 -70.0739 230° Southwest 138 159 4,100  Level Boston Center
Fri 07:45:55 PM 43.9186 -70.1144 230° Southwest 138 159 4,100  Level Boston Center
Fri 07:46:56 PM 43.8936 -70.1558 230° Southwest 138 159 4,100  Level Boston Center
Fri 07:47:57 PM 43.8764 -70.2111 247° West 145 167 4,100  Level Boston Center
Fri 07:48:58 PM 43.8611 -70.2642 248° West 147 169 4,100  Level Boston Center
Fri 07:50:02 PM 43.8447 -70.3225 249° West 150 173 4,100  Level Boston Center
Fri 07:51:01 PM 43.8292 -70.3761 248° West 150 173 4,100  Level Boston Center
Fri 07:52:02 PM 43.8139 -70.4300 249° West 151 174 4,100  Level Boston Center
Fri 07:53:05 PM 43.7967 -70.4897 248° West 152 175 4,100 -144 Level Boston Center
Fri 07:54:07 PM 43.7806 -70.5444 248° West 152 175 3,800 -393 Descending Boston Center
Fri 07:55:07 PM 43.7561 -70.5894 233° Southwest 156 180 3,300 -545 Descending Boston Center
Fri 07:56:08 PM 43.7139 -70.5786 169° South 145 167 2,700 -541 Descending Boston Center
Fri 07:57:09 PM 43.6767 -70.5606 161° South 145 167 2,200 -295 Descending Boston Center
Fri 07:58:10 PM 43.6578 -70.5119 118° Southeast 149 171 2,100 -96 Descending Boston Center
Fri 07:59:14 PM 43.6536 -70.4539 96° East 145 167 2,000 -432 Descending Boston Center
Fri 08:00:15 PM 43.6503 -70.3992 95° East 144 166 1,200 -787 Descending Boston Center
Fri 08:01:16 PM 43.6469 -70.3450 95° East 144 166 400 -443 Descending Boston Center
Fri 08:02:17 PM 43.6431 -70.2919 96° East 144 166 300 -98 Descending Boston Center

Login

Don't have an account? Register now (free) for customized features, flight alerts, and more!